Time;durP1;ratioP1;P1;durP2;ratioP2;P2;SDS_P1;SDS_P2;PMS_P1;PMS_P2;Temp;Humidity;BMP_temperature;BMP_pressure;BME280_temperature;BME280_humidity;BME280_pressure;Samples;Min_cycle;Max_cycle;Signal;HPM_P1;HPM_P2
2022/07/23 00:00:16;;;;;;;9.52;8.27;;;25.10;99.90;;;;;;5046805;28;20492;-79
2022/07/23 00:02:43;;;;;;;10.18;7.65;;;25.10;99.90;;;;;;5052425;28;20136;-80
2022/07/23 00:05:10;;;;;;;17.08;8.35;;;25.10;99.90;;;;;;5046340;28;20062;-79
2022/07/23 00:07:38;;;;;;;11.10;7.05;;;25.00;99.90;;;;;;5047930;28;20084;-79
2022/07/23 00:10:05;;;;;;;7.72;6.78;;;24.90;99.90;;;;;;5043534;28;20049;-81
2022/07/23 00:12:32;;;;;;;11.77;6.85;;;24.90;99.90;;;;;;5043230;28;20416;-81
2022/07/23 00:14:59;;;;;;;9.90;6.90;;;24.80;99.90;;;;;;5043389;28;20091;-81
2022/07/23 00:17:26;;;;;;;8.23;7.30;;;24.90;99.90;;;;;;5045992;28;20084;-80
2022/07/23 00:19:53;;;;;;;10.70;8.25;;;24.80;99.90;;;;;;5047442;28;20049;-78
2022/07/23 00:22:20;;;;;;;8.32;7.53;;;24.80;99.90;;;;;;5045926;28;20045;-80
2022/07/23 00:24:47;;;;;;;7.78;6.97;;;24.70;99.90;;;;;;5046330;28;20083;-78
2022/07/23 00:27:34;;;;;;;10.95;7.32;;;24.50;99.90;;;;;;5046290;28;20045;-80
2022/07/23 00:30:00;;;;;;;9.02;7.05;;;24.30;99.90;;;;;;5043160;28;20045;-80
2022/07/23 00:32:27;;;;;;;8.77;7.65;;;23.90;99.90;;;;;;5046751;28;20073;-79
2022/07/23 00:35:14;;;;;;;8.75;6.95;;;24.00;99.90;;;;;;5046528;28;20425;-80
2022/07/23 00:37:41;;;;;;;9.40;6.82;;;24.10;99.90;;;;;;5048895;28;20136;-79
2022/07/23 00:40:09;;;;;;;8.40;7.50;;;24.20;99.90;;;;;;5044078;28;20053;-79
2022/07/23 00:42:36;;;;;;;7.95;7.15;;;24.20;99.90;;;;;;5043078;28;20057;-80
2022/07/23 00:45:03;;;;;;;9.05;7.20;;;24.20;99.90;;;;;;5044430;28;20497;-80
2022/07/23 00:47:30;;;;;;;12.40;8.95;;;24.20;99.90;;;;;;5046326;28;20105;-79
2022/07/23 00:49:57;;;;;;;7.97;7.13;;;24.20;99.90;;;;;;5049364;28;20073;-77
2022/07/23 00:52:24;;;;;;;9.25;7.38;;;24.20;99.90;;;;;;5045306;28;20132;-79
2022/07/23 00:54:52;;;;;;;10.75;7.32;;;24.20;99.90;;;;;;5048034;28;20084;-79
2022/07/23 00:57:18;;;;;;;11.73;7.57;;;24.20;99.90;;;;;;5045251;28;20042;-79
2022/07/23 00:59:51;;;;;;;9.43;7.70;;;24.20;99.90;;;;;;5043078;28;20056;-81
2022/07/23 01:02:17;;;;;;;9.52;7.10;;;24.20;99.90;;;;;;5046229;28;20052;-80
2022/07/23 01:04:45;;;;;;;8.00;7.20;;;24.10;99.90;;;;;;5043852;28;20472;-80
2022/07/23 01:07:11;;;;;;;9.00;7.38;;;24.20;99.90;;;;;;5045772;28;20091;-79
2022/07/23 01:09:38;;;;;;;7.10;6.40;;;24.20;99.90;;;;;;5043094;28;20415;-82
2022/07/23 01:12:06;;;;;;;8.95;7.30;;;24.20;99.90;;;;;;5050282;28;20054;-80
2022/07/23 01:14:33;;;;;;;9.15;8.15;;;24.20;99.90;;;;;;5048789;28;20041;-80
2022/07/23 01:16:59;;;;;;;8.02;7.22;;;24.10;99.90;;;;;;5043940;28;20547;-79
2022/07/23 01:19:26;;;;;;;8.38;7.32;;;24.00;99.90;;;;;;5045860;28;20075;-81
2022/07/23 01:21:54;;;;;;;13.85;6.82;;;24.00;99.90;;;;;;5047450;28;20059;-80
2022/07/23 01:24:21;;;;;;;9.73;6.88;;;23.90;99.90;;;;;;5045822;28;20084;-80
2022/07/23 01:26:48;;;;;;;9.93;7.68;;;23.90;99.90;;;;;;5045822;28;20128;-77
2022/07/23 01:29:15;;;;;;;8.70;7.65;;;23.80;99.90;;;;;;5040269;28;20132;-78
2022/07/23 01:31:43;;;;;;;9.02;7.68;;;23.80;99.90;;;;;;5043879;28;20084;-78
2022/07/23 01:34:11;;;;;;;8.07;6.80;;;23.80;99.90;;;;;;5041055;28;20045;-80
2022/07/23 01:36:38;;;;;;;12.35;7.32;;;23.90;99.90;;;;;;5050709;28;20542;-78
2022/07/23 01:39:06;;;;;;;10.48;7.30;;;23.80;99.90;;;;;;5047001;28;20040;-79
2022/07/23 01:41:33;;;;;;;8.10;6.45;;;23.90;99.90;;;;;;5038512;28;20051;-80
2022/07/23 01:44:00;;;;;;;11.85;6.80;;;24.00;99.90;;;;;;5039484;28;20046;-79
2022/07/23 01:46:27;;;;;;;12.15;7.30;;;23.90;99.90;;;;;;5044600;28;20073;-80
2022/07/23 01:48:54;;;;;;;11.30;7.00;;;24.00;99.90;;;;;;5050633;28;20045;-79
2022/07/23 01:51:21;;;;;;;8.88;7.03;;;23.80;99.90;;;;;;5048699;28;20045;-79
2022/07/23 01:53:47;;;;;;;8.93;7.10;;;23.80;99.90;;;;;;5045173;28;20053;-79
2022/07/23 01:56:15;;;;;;;8.68;7.47;;;23.80;99.90;;;;;;5048139;28;20425;-81
2022/07/23 01:58:41;;;;;;;8.32;7.30;;;23.80;99.90;;;;;;5046044;28;20041;-79
2022/07/23 02:01:08;;;;;;;9.65;7.63;;;23.80;99.90;;;;;;5046787;28;20080;-79
2022/07/23 02:03:35;;;;;;;9.38;7.75;;;23.80;99.90;;;;;;5044417;28;20049;-80
2022/07/23 02:06:02;;;;;;;10.70;7.75;;;23.80;99.90;;;;;;5051604;28;20497;-78
2022/07/23 02:08:28;;;;;;;9.55;7.57;;;23.80;99.90;;;;;;5049563;28;20139;-79
2022/07/23 02:10:55;;;;;;;10.10;7.60;;;23.70;99.90;;;;;;5040746;28;20478;-79
2022/07/23 02:13:22;;;;;;;11.30;7.82;;;23.60;99.90;;;;;;5045334;28;20523;-79
2022/07/23 02:15:49;;;;;;;9.90;7.55;;;23.60;99.90;;;;;;5044987;28;20054;-78
2022/07/23 02:18:16;;;;;;;9.45;8.40;;;23.50;99.90;;;;;;5045490;28;20042;-80
2022/07/23 02:20:44;;;;;;;10.13;8.75;;;23.60;99.90;;;;;;5046453;28;20053;-78
2022/07/23 02:23:11;;;;;;;10.07;8.63;;;23.60;99.90;;;;;;5048742;28;20053;-80
2022/07/23 02:25:38;;;;;;;10.43;9.32;;;23.60;99.90;;;;;;5045866;28;20136;-78
2022/07/23 02:28:04;;;;;;;10.63;8.10;;;23.60;99.90;;;;;;5043864;28;20131;-79
2022/07/23 02:30:31;;;;;;;9.20;8.30;;;23.60;99.90;;;;;;5045435;28;20080;-78
2022/07/23 02:32:58;;;;;;;11.70;7.82;;;23.60;99.90;;;;;;5041173;28;20046;-78
2022/07/23 02:35:25;;;;;;;9.20;8.07;;;23.60;99.90;;;;;;5047381;28;20045;-80
2022/07/23 02:37:52;;;;;;;8.48;7.68;;;23.60;99.90;;;;;;5043780;28;20484;-79
2022/07/23 02:40:18;;;;;;;8.15;7.35;;;23.60;99.90;;;;;;5050107;28;20506;-79
2022/07/23 02:42:46;;;;;;;10.75;8.40;;;23.60;99.90;;;;;;5045504;28;20091;-79
2022/07/23 02:45:12;;;;;;;9.10;8.18;;;23.60;99.90;;;;;;5045733;28;20122;-78
2022/07/23 02:47:39;;;;;;;11.50;8.23;;;23.60;99.90;;;;;;5042581;28;20507;-81
2022/07/23 02:50:06;;;;;;;10.73;8.68;;;23.50;99.90;;;;;;5046316;28;20084;-79
2022/07/23 02:52:33;;;;;;;10.02;8.95;;;23.50;99.90;;;;;;5043770;28;20046;-80
2022/07/23 02:55:00;;;;;;;10.95;8.82;;;23.40;99.90;;;;;;5045686;28;20037;-78
2022/07/23 02:57:27;;;;;;;8.95;8.05;;;23.30;99.90;;;;;;5049926;28;20132;-79
2022/07/23 02:59:53;;;;;;;10.45;9.35;;;23.20;99.90;;;;;;5050566;28;20047;-79
2022/07/23 03:02:20;;;;;;;14.68;10.32;;;23.30;99.90;;;;;;5046241;28;20080;-79
2022/07/23 03:04:47;;;;;;;13.90;9.20;;;23.20;99.90;;;;;;5042875;28;20073;-79
2022/07/23 03:09:59;;;;;;;12.45;9.65;;;23.30;99.90;;;;;;5042774;28;20084;-78
2022/07/23 03:12:26;;;;;;;9.88;8.15;;;23.30;99.90;;;;;;5050837;28;20041;-78
2022/07/23 03:14:52;;;;;;;10.82;8.98;;;23.30;99.90;;;;;;5048276;28;20133;-81
2022/07/23 03:17:19;;;;;;;12.32;9.20;;;23.30;99.90;;;;;;5042021;28;20131;-79
2022/07/23 03:19:46;;;;;;;10.10;8.80;;;23.30;99.90;;;;;;5044750;28;20102;-76
2022/07/23 03:22:12;;;;;;;11.00;9.93;;;23.10;99.90;;;;;;5042535;28;20144;-78
2022/07/23 03:24:54;;;;;;;12.98;9.25;;;23.20;99.90;;;;;;5045471;28;20128;-77
2022/07/23 03:27:26;;;;;;;11.38;9.77;;;23.30;99.90;;;;;;5044888;28;20068;-82
2022/07/23 03:29:55;;;;;;;13.93;8.27;;;23.30;99.90;;;;;;5042409;28;20072;-78
2022/07/23 03:32:23;;;;;;;15.73;9.50;;;23.30;99.90;;;;;;5047745;28;20384;-78
2022/07/23 03:34:50;;;;;;;14.18;9.48;;;23.10;99.90;;;;;;5043172;28;20045;-79
2022/07/23 03:37:18;;;;;;;10.95;9.68;;;23.20;99.90;;;;;;5044471;28;20087;-78
2022/07/23 03:39:45;;;;;;;11.30;9.10;;;23.20;99.90;;;;;;5041604;28;20069;-77
2022/07/23 03:42:12;;;;;;;13.88;10.77;;;23.10;99.90;;;;;;5041251;28;20091;-78
2022/07/23 03:44:38;;;;;;;12.27;8.90;;;23.00;99.90;;;;;;5043344;28;20132;-78
2022/07/23 03:47:06;;;;;;;9.52;8.50;;;22.90;99.90;;;;;;5049687;28;20132;-79
2022/07/23 03:49:33;;;;;;;10.27;8.32;;;22.90;99.90;;;;;;5045329;28;20151;-79
2022/07/23 03:52:00;;;;;;;10.18;8.50;;;22.90;99.90;;;;;;5045747;28;20499;-78
2022/07/23 03:54:27;;;;;;;10.38;8.52;;;22.90;99.90;;;;;;5041594;28;20049;-79
2022/07/23 03:56:53;;;;;;;10.30;8.00;;;22.90;99.90;;;;;;5044288;28;20055;-78
2022/07/23 03:59:20;;;;;;;9.15;8.27;;;22.90;99.90;;;;;;5042088;28;20084;-78
2022/07/23 04:01:50;;;;;;;9.68;8.65;;;22.80;99.90;;;;;;5042502;28;20094;-78
2022/07/23 04:04:16;;;;;;;10.15;8.88;;;22.80;99.90;;;;;;5048186;28;20056;-78
2022/07/23 04:06:43;;;;;;;10.77;9.23;;;22.80;99.90;;;;;;5045394;28;20463;-80
2022/07/23 04:09:10;;;;;;;9.68;8.23;;;22.70;99.90;;;;;;5040047;28;20128;-78
2022/07/23 04:11:37;;;;;;;9.60;8.32;;;22.80;99.90;;;;;;5041038;28;20507;-78
2022/07/23 04:14:03;;;;;;;12.85;9.20;;;22.70;99.90;;;;;;5040986;28;20071;-78
2022/07/23 04:16:31;;;;;;;10.65;9.45;;;22.70;99.90;;;;;;5043548;28;20530;-79
2022/07/23 04:18:58;;;;;;;19.38;10.10;;;22.80;99.90;;;;;;5044516;28;20414;-80
2022/07/23 04:21:26;;;;;;;10.27;8.85;;;22.80;99.90;;;;;;5043305;28;20508;-78
2022/07/23 04:23:52;;;;;;;11.23;8.38;;;22.90;99.90;;;;;;5045887;28;20140;-79
2022/07/23 04:26:19;;;;;;;10.35;8.88;;;22.80;99.90;;;;;;5045297;28;20140;-78
2022/07/23 04:28:46;;;;;;;9.88;8.90;;;22.80;99.90;;;;;;5042554;28;20080;-79
2022/07/23 04:31:12;;;;;;;10.35;9.25;;;22.90;99.90;;;;;;5043901;28;20083;-78
2022/07/23 04:33:39;;;;;;;11.20;9.88;;;22.90;99.90;;;;;;5041353;28;20045;-79
2022/07/23 04:36:06;;;;;;;11.10;9.18;;;22.90;99.90;;;;;;5041193;28;20045;-78
2022/07/23 04:38:33;;;;;;;9.20;8.27;;;22.90;99.90;;;;;;5048639;28;20049;-81
2022/07/23 04:41:00;;;;;;;10.50;8.30;;;23.00;99.90;;;;;;5042665;28;20046;-80
2022/07/23 04:43:27;;;;;;;10.23;8.38;;;22.90;99.90;;;;;;5042454;28;20104;-79
2022/07/23 04:45:54;;;;;;;9.55;7.68;;;22.90;99.90;;;;;;5044091;28;20079;-79
2022/07/23 04:48:21;;;;;;;8.13;7.38;;;23.00;99.90;;;;;;5040473;28;20053;-77
2022/07/23 04:50:48;;;;;;;10.98;7.65;;;23.00;99.90;;;;;;5041378;28;20056;-79
2022/07/23 04:53:15;;;;;;;9.77;8.25;;;23.00;99.90;;;;;;5043314;28;20131;-78
2022/07/23 04:55:42;;;;;;;10.05;7.68;;;23.00;99.90;;;;;;5047270;28;20126;-79
2022/07/23 04:58:08;;;;;;;8.68;7.78;;;23.00;99.90;;;;;;5043581;28;20514;-77
2022/07/23 05:00:35;;;;;;;8.55;7.75;;;23.10;99.90;;;;;;5041669;28;20129;-78
2022/07/23 05:03:01;;;;;;;9.65;8.43;;;23.10;99.90;;;;;;5044770;28;20139;-79
2022/07/23 05:05:28;;;;;;;9.82;7.72;;;23.10;99.90;;;;;;5048644;28;20053;-82
2022/07/23 05:07:57;;;;;;;11.05;7.88;;;23.20;99.90;;;;;;5043682;28;20077;-79
2022/07/23 05:10:24;;;;;;;9.40;7.72;;;23.20;99.90;;;;;;5044203;28;20079;-79
2022/07/23 05:12:52;;;;;;;9.05;6.95;;;23.20;99.90;;;;;;5048787;28;20045;-79
2022/07/23 05:15:19;;;;;;;8.77;7.10;;;23.20;99.90;;;;;;5048766;28;20132;-79
2022/07/23 05:17:46;;;;;;;12.40;7.95;;;23.30;99.90;;;;;;5060093;28;20418;-78
2022/07/23 05:20:13;;;;;;;9.00;8.00;;;23.30;99.90;;;;;;5048795;28;20073;-78
2022/07/23 05:22:40;;;;;;;10.13;8.07;;;23.40;99.90;;;;;;5044540;28;20045;-79
2022/07/23 05:25:07;;;;;;;8.55;7.75;;;23.40;99.90;;;;;;5045373;28;20495;-79
2022/07/23 05:27:34;;;;;;;10.00;7.95;;;23.40;99.90;;;;;;5049412;28;20044;-77
2022/07/23 05:30:01;;;;;;;8.80;7.90;;;23.40;99.90;;;;;;5047161;28;20115;-79
2022/07/23 05:32:28;;;;;;;9.70;8.57;;;23.40;99.90;;;;;;5047783;28;20068;-77
2022/07/23 05:34:54;;;;;;;8.82;7.95;;;23.50;99.90;;;;;;5046725;28;20507;-79
2022/07/23 05:37:21;;;;;;;13.23;8.93;;;23.50;99.90;;;;;;5047268;28;20124;-79
2022/07/23 05:39:48;;;;;;;9.65;8.45;;;23.50;99.90;;;;;;5048275;28;20414;-78
2022/07/23 05:42:14;;;;;;;10.18;8.55;;;23.50;99.90;;;;;;5046734;28;20530;-79
2022/07/23 05:44:41;;;;;;;8.55;7.75;;;23.60;99.90;;;;;;5046505;28;20086;-78
2022/07/23 05:47:08;;;;;;;9.30;8.10;;;23.70;99.90;;;;;;5045812;28;20081;-78
2022/07/23 05:49:37;;;;;;;8.88;8.05;;;23.60;99.90;;;;;;5045983;28;20054;-79
2022/07/23 05:52:06;;;;;;;8.38;7.05;;;23.70;99.90;;;;;;5045251;28;20080;-78
2022/07/23 05:54:35;;;;;;;9.13;7.53;;;23.70;99.90;;;;;;5044822;28;20095;-78
2022/07/23 05:57:03;;;;;;;11.68;7.25;;;23.70;99.90;;;;;;5048607;28;20475;-78
2022/07/23 05:59:30;;;;;;;8.70;6.90;;;23.70;99.90;;;;;;5049594;28;20056;-79
2022/07/23 06:01:57;;;;;;;9.05;7.82;;;23.70;99.90;;;;;;5048378;28;20073;-78
2022/07/23 06:04:24;;;;;;;8.25;7.40;;;23.80;99.90;;;;;;5046938;28;20071;-79
2022/07/23 06:06:51;;;;;;;10.48;7.82;;;23.80;99.90;;;;;;5051808;28;20064;-77
2022/07/23 06:09:18;;;;;;;8.60;7.35;;;23.90;99.90;;;;;;5046909;28;20419;-78
2022/07/23 06:11:44;;;;;;;8.95;7.03;;;23.90;99.90;;;;;;5046492;28;20136;-80
2022/07/23 06:14:11;;;;;;;7.93;7.13;;;24.00;99.90;;;;;;5052244;28;20045;-78
2022/07/23 06:16:38;;;;;;;8.30;7.10;;;24.10;99.90;;;;;;5051215;28;20045;-78
2022/07/23 06:19:05;;;;;;;7.88;7.07;;;24.10;99.90;;;;;;5043809;28;20128;-79
2022/07/23 06:21:31;;;;;;;7.82;7.03;;;24.20;99.90;;;;;;5048958;28;20102;-78
2022/07/23 06:24:14;;;;;;;8.27;7.10;;;24.30;99.90;;;;;;5046216;28;20525;-78
2022/07/23 06:26:41;;;;;;;8.00;7.22;;;24.30;99.90;;;;;;5047268;28;20427;-79
2022/07/23 06:29:07;;;;;;;7.80;6.45;;;24.40;99.90;;;;;;5045649;28;20085;-78
2022/07/23 06:31:34;;;;;;;9.95;7.30;;;24.50;99.90;;;;;;5043515;28;20109;-77
2022/07/23 06:34:01;;;;;;;7.75;6.03;;;24.50;99.90;;;;;;5047858;28;20132;-80
2022/07/23 06:36:28;;;;;;;8.07;6.32;;;24.50;99.90;;;;;;5050303;28;20072;-79
2022/07/23 06:38:55;;;;;;;10.40;7.80;;;24.60;99.90;;;;;;5048904;28;20466;-80
2022/07/23 06:41:22;;;;;;;7.43;6.70;;;24.70;99.90;;;;;;5049279;28;20045;-78
2022/07/23 06:43:49;;;;;;;7.53;6.47;;;24.80;99.90;;;;;;5049949;28;20503;-78
2022/07/23 06:46:16;;;;;;;9.43;6.80;;;24.80;99.90;;;;;;5050825;28;20105;-79
2022/07/23 06:48:43;;;;;;;6.97;6.28;;;24.80;99.90;;;;;;5050416;28;20136;-77
2022/07/23 06:51:10;;;;;;;6.72;6.10;;;24.90;99.90;;;;;;5050133;28;20057;-79
2022/07/23 06:53:36;;;;;;;7.05;6.25;;;24.90;99.90;;;;;;5047101;28;20554;-78
2022/07/23 06:56:03;;;;;;;7.80;6.72;;;24.90;99.90;;;;;;5051531;28;20133;-78
2022/07/23 06:58:30;;;;;;;7.57;6.28;;;25.00;99.90;;;;;;5046591;28;20136;-78
2022/07/23 07:00:57;;;;;;;7.78;6.53;;;25.00;99.90;;;;;;5045562;28;20051;-78
2022/07/23 07:03:24;;;;;;;8.05;6.63;;;25.00;99.90;;;;;;5043355;28;20128;-78
2022/07/23 07:05:51;;;;;;;10.10;7.13;;;25.10;99.90;;;;;;5048620;28;20049;-78
2022/07/23 07:08:18;;;;;;;10.45;7.03;;;25.10;99.90;;;;;;5050920;28;20135;-76
2022/07/23 07:10:45;;;;;;;8.88;7.22;;;25.20;99.90;;;;;;5049909;28;20434;-78
2022/07/23 07:13:12;;;;;;;7.70;6.70;;;25.20;99.90;;;;;;5048670;28;20147;-78
2022/07/23 07:15:39;;;;;;;7.80;6.63;;;25.30;99.90;;;;;;5045552;28;20045;-80
2022/07/23 07:18:06;;;;;;;8.77;7.10;;;25.30;99.90;;;;;;5049049;28;20491;-77
2022/07/23 07:20:33;;;;;;;6.97;6.28;;;25.40;99.90;;;;;;5048319;28;20131;-78
2022/07/23 07:23:00;;;;;;;10.32;6.93;;;25.50;99.90;;;;;;5047638;28;20135;-82
2022/07/23 07:25:26;;;;;;;7.53;6.43;;;25.60;99.90;;;;;;5050050;28;20045;-82
2022/07/23 07:27:53;;;;;;;8.70;7.10;;;25.60;99.90;;;;;;5052308;28;20045;-83
2022/07/23 07:30:20;;;;;;;8.40;6.63;;;25.70;99.90;;;;;;5058433;28;20053;-82
2022/07/23 07:32:47;;;;;;;7.60;6.20;;;25.60;99.90;;;;;;5049555;28;20048;-82
2022/07/23 07:35:24;;;;;;;7.10;6.40;;;25.70;99.90;;;;;;5047740;28;20077;-83
2022/07/23 07:37:51;;;;;;;10.65;5.88;;;25.80;99.90;;;;;;5057160;28;20049;-83
2022/07/23 07:40:18;;;;;;;7.53;5.93;;;25.80;99.90;;;;;;5049136;28;20046;-83
2022/07/23 07:42:46;;;;;;;6.45;5.38;;;25.90;99.90;;;;;;5049722;28;20458;-82
2022/07/23 07:45:13;;;;;;;7.75;5.55;;;26.00;99.90;;;;;;5051523;28;20135;-83
2022/07/23 07:47:41;;;;;;;6.93;5.85;;;26.00;99.90;;;;;;5046563;28;20045;-82
2022/07/23 07:50:09;;;;;;;9.65;6.28;;;26.10;99.90;;;;;;5048375;28;20053;-83
2022/07/23 07:52:38;;;;;;;8.02;6.38;;;26.10;99.90;;;;;;5049648;28;20114;-83
2022/07/23 07:55:08;;;;;;;6.60;5.80;;;26.20;99.90;;;;;;5046092;28;20047;-83
2022/07/23 07:57:36;;;;;;;7.88;5.53;;;26.30;99.90;;;;;;5057782;28;20056;-82
2022/07/23 08:00:05;;;;;;;6.68;6.07;;;26.30;99.90;;;;;;5042722;28;20053;-82
2022/07/23 08:02:45;;;;;;;6.43;5.65;;;26.40;99.90;;;;;;5057334;28;20081;-83
2022/07/23 08:05:13;;;;;;;8.30;6.07;;;26.50;99.90;;;;;;5046285;28;20075;-81
2022/07/23 08:07:40;;;;;;;7.57;5.97;;;26.60;99.90;;;;;;5057117;28;20627;-83
2022/07/23 08:10:10;;;;;;;6.32;5.72;;;26.60;99.90;;;;;;5049204;28;20045;-84
2022/07/23 08:12:48;;;;;;;7.28;5.68;;;26.60;99.90;;;;;;5048767;28;20049;-83
2022/07/23 08:15:21;;;;;;;8.98;7.18;;;26.70;99.90;;;;;;5057640;28;20041;-83
2022/07/23 08:17:49;;;;;;;7.38;6.30;;;26.70;99.90;;;;;;5059456;28;20061;-82
2022/07/23 08:20:18;;;;;;;10.52;6.35;;;26.80;99.90;;;;;;5046017;28;20045;-83
2022/07/23 08:22:51;;;;;;;8.85;6.03;;;26.80;99.90;;;;;;5046925;28;20388;-83
2022/07/23 08:25:24;;;;;;;8.73;7.05;;;26.80;99.90;;;;;;5047082;28;20052;-83
2022/07/23 08:27:52;;;;;;;7.78;6.50;;;26.90;99.90;;;;;;5049972;28;20057;-83
2022/07/23 08:30:19;;;;;;;6.88;6.18;;;26.90;99.90;;;;;;5052105;28;20081;-82
2022/07/23 08:33:01;;;;;;;9.90;6.30;;;26.80;99.90;;;;;;5053951;28;20052;-82
2022/07/23 08:35:32;;;;;;;7.50;6.45;;;26.90;99.90;;;;;;5046830;28;20128;-83
2022/07/23 08:38:04;;;;;;;8.95;6.47;;;26.80;99.90;;;;;;5040546;28;20137;-82
2022/07/23 08:40:34;;;;;;;8.15;6.38;;;26.90;99.90;;;;;;5048167;28;20538;-84
2022/07/23 08:43:09;;;;;;;8.30;5.70;;;27.00;99.90;;;;;;5047018;28;20076;-83
2022/07/23 08:45:39;;;;;;;6.40;5.80;;;27.00;99.90;;;;;;5048995;28;20077;-83
2022/07/23 08:48:12;;;;;;;9.57;6.53;;;27.00;99.90;;;;;;5052046;28;20136;-83
2022/07/23 08:50:44;;;;;;;8.25;6.70;;;26.90;99.90;;;;;;5042845;28;20558;-83
2022/07/23 08:53:10;;;;;;;6.95;6.10;;;27.00;99.90;;;;;;5042248;28;20119;-83
2022/07/23 08:55:37;;;;;;;8.93;6.10;;;27.10;99.90;;;;;;5042548;28;20056;-83
2022/07/23 08:58:04;;;;;;;9.75;6.65;;;27.10;99.90;;;;;;5045157;28;20045;-83
2022/07/23 09:00:31;;;;;;;8.38;6.20;;;27.20;99.90;;;;;;5050690;28;20492;-83
2022/07/23 09:02:58;;;;;;;9.15;6.50;;;27.20;99.90;;;;;;5053874;28;20084;-82
2022/07/23 09:05:25;;;;;;;8.25;6.25;;;27.20;99.90;;;;;;5050158;28;20504;-84
2022/07/23 09:08:07;;;;;;;7.80;6.20;;;27.20;99.90;;;;;;5052516;28;20057;-83
2022/07/23 09:10:49;;;;;;;8.10;6.55;;;27.20;99.90;;;;;;5051271;28;20049;-83
2022/07/23 09:13:28;;;;;;;7.45;6.72;;;27.20;99.90;;;;;;5050764;28;20084;-84
2022/07/23 09:15:57;;;;;;;8.03;6.57;;;27.20;99.90;;;;;;5052546;28;20057;-84
2022/07/23 09:18:39;;;;;;;7.88;6.80;;;27.20;99.90;;;;;;5058021;28;20080;-85
2022/07/23 09:21:36;;;;;;;12.55;6.80;;;27.30;99.90;;;;;;5050972;28;20133;-84
2022/07/23 09:24:06;;;;;;;10.48;7.03;;;27.30;99.90;;;;;;5052940;28;20089;-85
2022/07/23 09:26:33;;;;;;;8.60;6.38;;;27.30;99.90;;;;;;5049991;28;20049;-84
2022/07/23 09:29:06;;;;;;;8.75;7.03;;;27.40;99.90;;;;;;5052705;28;20453;-84
2022/07/23 09:31:56;;;;;;;8.57;7.00;;;27.60;99.90;;;;;;5047512;28;20078;-83
2022/07/23 09:34:35;;;;;;;10.15;6.88;;;27.60;99.90;;;;;;5042826;28;20128;-84
2022/07/23 09:37:14;;;;;;;9.20;7.65;;;27.70;99.90;;;;;;5051218;28;20045;-84
2022/07/23 09:39:45;;;;;;;11.00;7.15;;;27.70;99.90;;;;;;5058189;28;20096;-84
2022/07/23 09:42:26;;;;;;;7.55;6.80;;;27.60;99.90;;;;;;5041746;28;20049;-84
2022/07/23 09:45:05;;;;;;;11.02;7.85;;;27.70;99.90;;;;;;5049696;28;20054;-82
2022/07/23 09:47:37;;;;;;;9.40;7.63;;;27.70;99.90;;;;;;5048378;28;20057;-84
2022/07/23 09:50:09;;;;;;;10.05;7.63;;;27.80;99.90;;;;;;5052143;28;20046;-83
2022/07/23 09:52:47;;;;;;;8.63;6.97;;;27.90;99.90;;;;;;5050147;28;20072;-84
2022/07/23 09:55:36;;;;;;;9.18;6.80;;;28.00;99.90;;;;;;5059303;28;20045;-84
2022/07/23 09:58:11;;;;;;;10.30;7.28;;;28.10;99.90;;;;;;5058136;28;20116;-83
2022/07/23 10:00:49;;;;;;;8.48;7.22;;;28.10;99.90;;;;;;5065766;28;20055;-86
2022/07/23 10:03:19;;;;;;;10.45;7.53;;;28.10;99.90;;;;;;5059630;28;20055;-83
2022/07/23 10:05:50;;;;;;;7.93;6.97;;;28.20;99.90;;;;;;5060792;28;20045;-83
2022/07/23 10:08:22;;;;;;;10.23;7.05;;;28.20;99.90;;;;;;5063155;28;20068;-82
2022/07/23 10:10:55;;;;;;;9.45;7.95;;;28.20;99.90;;;;;;5068651;28;20049;-84
2022/07/23 10:16:08;;;;;;;8.38;7.50;;;28.30;99.90;;;;;;5061830;28;20053;-83
2022/07/23 10:18:42;;;;;;;10.25;7.70;;;28.40;99.90;;;;;;5062687;28;20120;-83
2022/07/23 10:21:16;;;;;;;9.10;7.38;;;28.40;99.90;;;;;;5048320;28;20132;-82
2022/07/23 10:23:51;;;;;;;9.32;7.72;;;28.40;99.90;;;;;;5049494;28;20111;-84
2022/07/23 10:26:35;;;;;;;10.32;7.78;;;28.30;99.90;;;;;;5051621;28;20053;-82
2022/07/23 10:29:05;;;;;;;10.52;7.38;;;28.30;99.90;;;;;;5057067;28;20095;-85
2022/07/23 10:31:52;;;;;;;8.05;7.25;;;28.40;99.90;;;;;;5062310;28;20231;-81
2022/07/23 10:34:55;;;;;;;11.35;6.80;;;28.40;99.90;;;;;;5049822;28;20140;-84
2022/07/23 10:37:32;;;;;;;8.15;6.65;;;28.50;99.90;;;;;;5048506;28;20131;-83
2022/07/23 10:40:09;;;;;;;7.68;6.75;;;28.70;99.90;;;;;;5048696;28;20049;-84
2022/07/23 10:42:38;;;;;;;7.45;6.50;;;28.80;99.90;;;;;;5051791;28;20069;-84
2022/07/23 10:45:34;;;;;;;7.40;6.70;;;28.90;99.90;;;;;;5052101;28;20495;-84
2022/07/23 10:48:23;;;;;;;8.38;6.72;;;29.00;99.90;;;;;;5048648;28;20045;-81
2022/07/23 10:51:28;;;;;;;7.78;6.97;;;29.10;99.90;;;;;;5045873;28;20140;-83
2022/07/23 10:53:59;;;;;;;8.95;6.63;;;29.10;99.90;;;;;;5055525;28;20052;-82
2022/07/23 10:56:58;;;;;;;6.97;6.28;;;29.10;99.90;;;;;;5057929;28;20072;-81
2022/07/23 10:59:25;;;;;;;6.95;6.25;;;29.10;99.90;;;;;;5046477;28;20050;-82
2022/07/23 11:01:52;;;;;;;8.70;7.07;;;29.10;99.90;;;;;;5053241;28;20060;-81
2022/07/23 11:04:19;;;;;;;10.15;7.15;;;29.10;99.90;;;;;;5045359;28;20045;-83
2022/07/23 11:06:49;;;;;;;8.18;6.68;;;29.10;99.90;;;;;;5050616;28;20522;-82
2022/07/23 11:09:37;;;;;;;9.43;6.60;;;29.10;99.90;;;;;;5050993;28;20057;-83
2022/07/23 11:12:20;;;;;;;7.82;6.38;;;29.20;99.90;;;;;;5054280;28;20072;-82
2022/07/23 11:15:11;;;;;;;7.65;6.53;;;29.10;99.90;;;;;;5053244;28;20072;-82
2022/07/23 11:17:50;;;;;;;8.00;6.22;;;29.10;99.90;;;;;;5047132;28;20507;-82
2022/07/23 11:20:20;;;;;;;13.37;6.27;;;29.20;99.90;;;;;;5047196;28;20100;-81
2022/07/23 11:22:55;;;;;;;7.90;6.40;;;29.20;99.90;;;;;;5053515;28;20291;-81
2022/07/23 11:25:23;;;;;;;7.80;6.78;;;29.20;99.90;;;;;;5042367;28;20053;-84
2022/07/23 11:27:51;;;;;;;7.07;6.28;;;29.20;99.90;;;;;;5046672;28;20057;-82
2022/07/23 11:30:27;;;;;;;7.72;6.22;;;29.20;99.90;;;;;;5054344;28;20132;-80
2022/07/23 11:33:14;;;;;;;9.75;6.40;;;29.30;99.90;;;;;;5046300;28;20415;-83
2022/07/23 11:35:44;;;;;;;7.10;6.07;;;29.30;99.90;;;;;;5047697;28;20219;-83
2022/07/23 11:38:15;;;;;;;6.97;6.30;;;29.30;99.90;;;;;;5047138;28;20140;-83
2022/07/23 11:40:47;;;;;;;6.40;5.80;;;29.30;99.90;;;;;;5045627;28;20053;-82
2022/07/23 11:43:14;;;;;;;8.73;6.45;;;29.30;99.90;;;;;;5057704;28;20053;-83
2022/07/23 11:45:47;;;;;;;8.15;5.97;;;29.30;99.90;;;;;;5057252;28;20075;-83
2022/07/23 11:48:27;;;;;;;7.30;6.53;;;29.40;99.90;;;;;;5048386;28;20427;-84
2022/07/23 11:50:56;;;;;;;7.72;6.70;;;29.40;99.90;;;;;;5047783;28;20057;-82
2022/07/23 11:53:34;;;;;;;9.65;6.82;;;29.50;99.90;;;;;;5060750;28;20068;-81
2022/07/23 11:56:11;;;;;;;6.40;5.80;;;29.70;99.90;;;;;;5040747;28;20478;-84
2022/07/23 11:58:39;;;;;;;8.82;6.18;;;29.80;99.90;;;;;;5039336;28;20076;-83
2022/07/23 12:01:06;;;;;;;6.97;6.28;;;29.80;99.90;;;;;;5040613;28;20072;-84
2022/07/23 12:03:50;;;;;;;8.48;6.70;;;29.70;99.90;;;;;;5039874;28;20507;-83
2022/07/23 12:06:18;;;;;;;9.48;6.72;;;29.70;99.90;;;;;;5049082;28;20049;-84
2022/07/23 12:08:44;;;;;;;7.85;7.03;;;29.70;99.90;;;;;;5057698;28;20102;-82
2022/07/23 12:11:12;;;;;;;7.88;6.93;;;29.70;99.90;;;;;;5047055;28;20053;-82
2022/07/23 12:13:39;;;;;;;7.45;6.20;;;29.70;99.90;;;;;;5050567;28;20714;-83
2022/07/23 12:16:07;;;;;;;7.50;6.55;;;29.80;99.90;;;;;;5055162;28;20052;-83
2022/07/23 12:18:35;;;;;;;8.20;7.10;;;29.80;99.90;;;;;;5052863;28;20127;-83
2022/07/23 12:21:06;;;;;;;7.38;6.57;;;29.90;99.90;;;;;;5047047;28;20045;-83
2022/07/23 12:23:33;;;;;;;7.85;6.38;;;29.90;99.90;;;;;;5047873;28;20049;-82
2022/07/23 12:26:03;;;;;;;8.13;6.65;;;29.90;99.90;;;;;;5056196;28;20564;-85
2022/07/23 12:28:33;;;;;;;6.85;6.25;;;29.80;99.90;;;;;;5048957;28;20423;-84
2022/07/23 12:31:00;;;;;;;7.93;6.47;;;29.80;99.90;;;;;;5047658;28;20081;-83
2022/07/23 12:33:30;;;;;;;8.63;7.22;;;29.80;99.90;;;;;;5050548;28;20110;-82
2022/07/23 12:35:59;;;;;;;7.13;6.43;;;29.80;99.90;;;;;;5047845;28;20117;-84
2022/07/23 12:38:28;;;;;;;10.88;6.15;;;29.70;99.90;;;;;;5048914;28;20041;-84
2022/07/23 12:40:57;;;;;;;8.17;6.67;;;29.70;99.90;;;;;;5050155;28;20072;-82
2022/07/23 12:43:25;;;;;;;7.45;6.75;;;29.70;99.90;;;;;;5047418;28;20115;-84
2022/07/23 12:45:55;;;;;;;6.78;6.07;;;29.70;99.90;;;;;;5050253;28;20069;-84
2022/07/23 12:48:26;;;;;;;9.13;6.80;;;29.70;99.90;;;;;;5049735;28;20045;-83
2022/07/23 12:50:53;;;;;;;7.53;6.72;;;29.60;99.90;;;;;;5051685;28;20084;-84
2022/07/23 12:53:31;;;;;;;7.57;6.80;;;29.60;99.90;;;;;;5047849;28;20248;-83
2022/07/23 12:56:21;;;;;;;7.78;7.03;;;29.60;99.90;;;;;;5048724;28;20079;-85
2022/07/23 12:58:52;;;;;;;7.47;6.25;;;29.70;99.90;;;;;;5049364;28;20519;-84
2022/07/23 13:01:22;;;;;;;7.68;6.43;;;29.70;99.90;;;;;;5047480;28;20109;-83